sensor_id;sensor_type;location;lat;lon;timestamp;temperature;humidity
12276;DHT22;6200;48.144;11.424;2022-09-12T00:03:33;12.50;99.90
12276;DHT22;6200;48.144;11.424;2022-09-12T00:05:59;12.60;99.90
12276;DHT22;6200;48.144;11.424;2022-09-12T00:08:25;12.50;99.90
12276;DHT22;6200;48.144;11.424;2022-09-12T00:10:50;12.50;99.90
12276;DHT22;6200;48.144;11.424;2022-09-12T00:13:16;12.50;99.90
12276;DHT22;6200;48.144;11.424;2022-09-12T00:15:43;12.50;99.90
12276;DHT22;6200;48.144;11.424;2022-09-12T00:18:12;12.50;99.90
12276;DHT22;6200;48.144;11.424;2022-09-12T00:20:45;12.40;99.90
12276;DHT22;6200;48.144;11.424;2022-09-12T00:23:12;12.40;99.90
12276;DHT22;6200;48.144;11.424;2022-09-12T00:25:45;12.40;99.90
12276;DHT22;6200;48.144;11.424;2022-09-12T00:28:12;12.40;99.90
12276;DHT22;6200;48.144;11.424;2022-09-12T00:30:42;12.30;99.90
12276;DHT22;6200;48.144;11.424;2022-09-12T00:33:09;12.30;99.90
12276;DHT22;6200;48.144;11.424;2022-09-12T00:35:43;12.30;99.90
12276;DHT22;6200;48.144;11.424;2022-09-12T00:38:10;12.30;99.90
12276;DHT22;6200;48.144;11.424;2022-09-12T00:40:36;12.20;99.90
12276;DHT22;6200;48.144;11.424;2022-09-12T00:43:01;12.20;99.90
12276;DHT22;6200;48.144;11.424;2022-09-12T00:45:28;12.20;99.90
12276;DHT22;6200;48.144;11.424;2022-09-12T00:47:56;12.20;99.90
12276;DHT22;6200;48.144;11.424;2022-09-12T00:50:23;12.10;99.90
12276;DHT22;6200;48.144;11.424;2022-09-12T00:52:51;12.10;99.90
12276;DHT22;6200;48.144;11.424;2022-09-12T00:55:36;12.00;99.90
12276;DHT22;6200;48.144;11.424;2022-09-12T00:58:13;12.00;99.90
12276;DHT22;6200;48.144;11.424;2022-09-12T01:00:41;12.00;99.90
12276;DHT22;6200;48.144;11.424;2022-09-12T01:03:12;12.00;99.90
12276;DHT22;6200;48.144;11.424;2022-09-12T01:05:43;12.00;99.90
12276;DHT22;6200;48.144;11.424;2022-09-12T01:08:11;12.00;99.90
12276;DHT22;6200;48.144;11.424;2022-09-12T01:10:39;12.00;99.90
12276;DHT22;6200;48.144;11.424;2022-09-12T01:13:07;11.90;99.90
12276;DHT22;6200;48.144;11.424;2022-09-12T01:15:36;11.90;99.90
12276;DHT22;6200;48.144;11.424;2022-09-12T01:18:16;11.90;99.90
12276;DHT22;6200;48.144;11.424;2022-09-12T01:29:21;11.90;99.90
12276;DHT22;6200;48.144;11.424;2022-09-12T01:37:10;11.80;99.90
12276;DHT22;6200;48.144;11.424;2022-09-12T01:40:06;11.70;99.90
12276;DHT22;6200;48.144;11.424;2022-09-12T01:47:57;11.60;99.90
12276;DHT22;6200;48.144;11.424;2022-09-12T01:50:29;11.60;99.90
12276;DHT22;6200;48.144;11.424;2022-09-12T01:53:12;11.60;99.90
12276;DHT22;6200;48.144;11.424;2022-09-12T01:55:45;11.50;99.90
12276;DHT22;6200;48.144;11.424;2022-09-12T01:58:18;11.50;99.90
12276;DHT22;6200;48.144;11.424;2022-09-12T02:01:06;11.50;99.90
12276;DHT22;6200;48.144;11.424;2022-09-12T02:03:40;11.50;99.90
12276;DHT22;6200;48.144;11.424;2022-09-12T02:06:17;11.50;99.90
12276;DHT22;6200;48.144;11.424;2022-09-12T02:08:47;11.60;99.90
12276;DHT22;6200;48.144;11.424;2022-09-12T02:11:13;11.60;99.90
12276;DHT22;6200;48.144;11.424;2022-09-12T02:14:06;11.50;99.90
12276;DHT22;6200;48.144;11.424;2022-09-12T02:16:35;11.50;99.90
12276;DHT22;6200;48.144;11.424;2022-09-12T02:19:16;11.40;99.90
12276;DHT22;6200;48.144;11.424;2022-09-12T02:21:54;11.40;99.90
12276;DHT22;6200;48.144;11.424;2022-09-12T02:24:23;11.40;99.90
12276;DHT22;6200;48.144;11.424;2022-09-12T02:26:54;11.40;99.90
12276;DHT22;6200;48.144;11.424;2022-09-12T02:29:21;11.30;99.90
12276;DHT22;6200;48.144;11.424;2022-09-12T02:31:51;11.30;99.90
12276;DHT22;6200;48.144;11.424;2022-09-12T02:37:24;11.20;99.90
12276;DHT22;6200;48.144;11.424;2022-09-12T02:39:54;11.20;99.90
12276;DHT22;6200;48.144;11.424;2022-09-12T02:42:21;11.20;99.90
12276;DHT22;6200;48.144;11.424;2022-09-12T02:44:49;11.20;99.90
12276;DHT22;6200;48.144;11.424;2022-09-12T02:47:22;11.20;99.90
12276;DHT22;6200;48.144;11.424;2022-09-12T02:49:49;11.10;99.90
12276;DHT22;6200;48.144;11.424;2022-09-12T02:52:16;11.10;99.90
12276;DHT22;6200;48.144;11.424;2022-09-12T02:54:42;11.10;99.90
12276;DHT22;6200;48.144;11.424;2022-09-12T02:57:16;11.10;99.90
12276;DHT22;6200;48.144;11.424;2022-09-12T02:59:41;11.00;99.90
12276;DHT22;6200;48.144;11.424;2022-09-12T03:02:31;11.00;99.90
12276;DHT22;6200;48.144;11.424;2022-09-12T03:08:29;11.00;99.90
12276;DHT22;6200;48.144;11.424;2022-09-12T03:14:11;11.00;99.90
12276;DHT22;6200;48.144;11.424;2022-09-12T03:22:34;11.00;99.90
12276;DHT22;6200;48.144;11.424;2022-09-12T03:25:10;11.00;99.90
12276;DHT22;6200;48.144;11.424;2022-09-12T03:30:25;11.00;99.90
12276;DHT22;6200;48.144;11.424;2022-09-12T03:32:53;11.00;99.90
12276;DHT22;6200;48.144;11.424;2022-09-12T03:35:21;10.90;99.90
12276;DHT22;6200;48.144;11.424;2022-09-12T03:37:48;10.90;99.90
12276;DHT22;6200;48.144;11.424;2022-09-12T03:40:14;10.90;99.90
12276;DHT22;6200;48.144;11.424;2022-09-12T03:42:40;10.90;99.90
12276;DHT22;6200;48.144;11.424;2022-09-12T03:45:07;10.80;99.90
12276;DHT22;6200;48.144;11.424;2022-09-12T03:47:33;10.80;99.90
12276;DHT22;6200;48.144;11.424;2022-09-12T03:49:59;10.80;99.90
12276;DHT22;6200;48.144;11.424;2022-09-12T03:52:24;10.70;99.90
12276;DHT22;6200;48.144;11.424;2022-09-12T03:54:50;10.70;99.90
12276;DHT22;6200;48.144;11.424;2022-09-12T03:57:16;10.70;99.90
12276;DHT22;6200;48.144;11.424;2022-09-12T03:59:41;10.60;99.90
12276;DHT22;6200;48.144;11.424;2022-09-12T04:02:07;10.70;99.90
12276;DHT22;6200;48.144;11.424;2022-09-12T04:04:34;10.60;99.90
12276;DHT22;6200;48.144;11.424;2022-09-12T04:06:59;10.60;99.90
12276;DHT22;6200;48.144;11.424;2022-09-12T04:09:25;10.60;99.90
12276;DHT22;6200;48.144;11.424;2022-09-12T04:11:50;10.60;99.90
12276;DHT22;6200;48.144;11.424;2022-09-12T04:14:16;10.60;99.90
12276;DHT22;6200;48.144;11.424;2022-09-12T04:16:41;10.50;99.90
12276;DHT22;6200;48.144;11.424;2022-09-12T04:19:09;10.50;99.90
12276;DHT22;6200;48.144;11.424;2022-09-12T04:21:36;10.50;99.90
12276;DHT22;6200;48.144;11.424;2022-09-12T04:24:01;10.50;99.90
12276;DHT22;6200;48.144;11.424;2022-09-12T04:26:27;10.50;99.90
12276;DHT22;6200;48.144;11.424;2022-09-12T04:28:54;10.50;99.90
12276;DHT22;6200;48.144;11.424;2022-09-12T04:31:21;10.50;99.90
12276;DHT22;6200;48.144;11.424;2022-09-12T04:33:53;10.00;99.90
12276;DHT22;6200;48.144;11.424;2022-09-12T04:36:19;10.50;99.90
12276;DHT22;6200;48.144;11.424;2022-09-12T04:38:46;10.50;99.90
12276;DHT22;6200;48.144;11.424;2022-09-12T04:41:12;10.50;99.90
12276;DHT22;6200;48.144;11.424;2022-09-12T04:43:38;10.50;99.90
12276;DHT22;6200;48.144;11.424;2022-09-12T04:46:08;10.40;99.90
12276;DHT22;6200;48.144;11.424;2022-09-12T04:48:34;10.40;99.90
12276;DHT22;6200;48.144;11.424;2022-09-12T04:51:23;10.40;99.90
12276;DHT22;6200;48.144;11.424;2022-09-12T04:53:56;10.40;99.90
12276;DHT22;6200;48.144;11.424;2022-09-12T04:56:22;10.40;99.90
12276;DHT22;6200;48.144;11.424;2022-09-12T04:58:49;10.40;99.90
12276;DHT22;6200;48.144;11.424;2022-09-12T05:01:17;10.40;99.90
12276;DHT22;6200;48.144;11.424;2022-09-12T05:03:43;10.40;99.90
12276;DHT22;6200;48.144;11.424;2022-09-12T05:06:15;10.40;99.90
12276;DHT22;6200;48.144;11.424;2022-09-12T05:08:41;10.40;99.90
12276;DHT22;6200;48.144;11.424;2022-09-12T05:11:10;10.40;99.90
12276;DHT22;6200;48.144;11.424;2022-09-12T05:13:37;10.40;99.90
12276;DHT22;6200;48.144;11.424;2022-09-12T05:16:04;10.40;99.90
12276;DHT22;6200;48.144;11.424;2022-09-12T05:18:31;10.40;99.90
12276;DHT22;6200;48.144;11.424;2022-09-12T05:21:01;10.40;99.90
12276;DHT22;6200;48.144;11.424;2022-09-12T05:23:28;10.40;99.90
12276;DHT22;6200;48.144;11.424;2022-09-12T05:25:55;10.40;99.90
12276;DHT22;6200;48.144;11.424;2022-09-12T05:28:22;10.50;99.90
12276;DHT22;6200;48.144;11.424;2022-09-12T05:31:03;10.50;99.90
12276;DHT22;6200;48.144;11.424;2022-09-12T05:33:29;10.50;99.90
12276;DHT22;6200;48.144;11.424;2022-09-12T05:35:55;10.50;99.90
12276;DHT22;6200;48.144;11.424;2022-09-12T05:38:21;10.60;99.90
12276;DHT22;6200;48.144;11.424;2022-09-12T05:40:49;10.60;99.90
12276;DHT22;6200;48.144;11.424;2022-09-12T05:43:15;10.60;99.90
12276;DHT22;6200;48.144;11.424;2022-09-12T05:45:41;10.60;99.90
12276;DHT22;6200;48.144;11.424;2022-09-12T05:48:06;10.50;99.90
12276;DHT22;6200;48.144;11.424;2022-09-12T05:50:32;10.70;99.90
12276;DHT22;6200;48.144;11.424;2022-09-12T05:52:58;10.70;99.90
12276;DHT22;6200;48.144;11.424;2022-09-12T05:55:23;10.70;99.90
12276;DHT22;6200;48.144;11.424;2022-09-12T05:57:49;10.80;99.90
12276;DHT22;6200;48.144;11.424;2022-09-12T06:00:15;10.80;99.90
12276;DHT22;6200;48.144;11.424;2022-09-12T06:02:41;10.80;99.90
12276;DHT22;6200;48.144;11.424;2022-09-12T06:05:07;10.90;99.90
12276;DHT22;6200;48.144;11.424;2022-09-12T06:07:34;10.90;99.90
12276;DHT22;6200;48.144;11.424;2022-09-12T06:10:01;11.00;99.90
12276;DHT22;6200;48.144;11.424;2022-09-12T06:12:29;11.00;99.90
12276;DHT22;6200;48.144;11.424;2022-09-12T06:14:55;11.10;99.90
12276;DHT22;6200;48.144;11.424;2022-09-12T06:17:21;11.10;99.90
12276;DHT22;6200;48.144;11.424;2022-09-12T06:19:47;11.10;99.90
12276;DHT22;6200;48.144;11.424;2022-09-12T06:22:15;11.20;99.90
12276;DHT22;6200;48.144;11.424;2022-09-12T06:24:40;11.20;99.90
12276;DHT22;6200;48.144;11.424;2022-09-12T06:27:05;11.30;99.90
12276;DHT22;6200;48.144;11.424;2022-09-12T06:29:31;11.40;99.90
12276;DHT22;6200;48.144;11.424;2022-09-12T06:31:57;11.40;99.90
12276;DHT22;6200;48.144;11.424;2022-09-12T06:34:22;11.50;99.90
12276;DHT22;6200;48.144;11.424;2022-09-12T06:36:49;11.60;99.90
12276;DHT22;6200;48.144;11.424;2022-09-12T06:39:17;11.70;99.90
12276;DHT22;6200;48.144;11.424;2022-09-12T06:41:43;11.90;99.90
12276;DHT22;6200;48.144;11.424;2022-09-12T06:44:12;12.00;99.90
12276;DHT22;6200;48.144;11.424;2022-09-12T06:46:38;12.10;99.90
12276;DHT22;6200;48.144;11.424;2022-09-12T06:49:04;12.30;99.90
12276;DHT22;6200;48.144;11.424;2022-09-12T06:51:30;12.50;99.90
12276;DHT22;6200;48.144;11.424;2022-09-12T06:53:56;12.70;99.90
12276;DHT22;6200;48.144;11.424;2022-09-12T06:56:24;12.90;99.90
12276;DHT22;6200;48.144;11.424;2022-09-12T06:58:51;13.00;99.90
12276;DHT22;6200;48.144;11.424;2022-09-12T07:01:25;13.20;99.90
12276;DHT22;6200;48.144;11.424;2022-09-12T07:03:54;13.30;99.90
12276;DHT22;6200;48.144;11.424;2022-09-12T07:06:23;13.50;99.90
12276;DHT22;6200;48.144;11.424;2022-09-12T07:08:54;13.60;99.90
12276;DHT22;6200;48.144;11.424;2022-09-12T07:11:24;13.70;99.90
12276;DHT22;6200;48.144;11.424;2022-09-12T07:13:52;13.80;99.90
12276;DHT22;6200;48.144;11.424;2022-09-12T07:16:18;13.90;99.90
12276;DHT22;6200;48.144;11.424;2022-09-12T07:18:49;14.00;99.90
12276;DHT22;6200;48.144;11.424;2022-09-12T07:21:15;14.20;99.90
12276;DHT22;6200;48.144;11.424;2022-09-12T07:23:40;14.30;99.90
12276;DHT22;6200;48.144;11.424;2022-09-12T07:26:08;14.50;99.90
12276;DHT22;6200;48.144;11.424;2022-09-12T07:28:34;14.70;99.90
12276;DHT22;6200;48.144;11.424;2022-09-12T07:31:09;15.00;99.90
12276;DHT22;6200;48.144;11.424;2022-09-12T07:33:35;15.30;99.90
12276;DHT22;6200;48.144;11.424;2022-09-12T07:36:03;15.70;99.90
12276;DHT22;6200;48.144;11.424;2022-09-12T07:38:29;16.00;99.90
12276;DHT22;6200;48.144;11.424;2022-09-12T07:40:54;16.40;99.90
12276;DHT22;6200;48.144;11.424;2022-09-12T07:43:20;16.80;99.90
12276;DHT22;6200;48.144;11.424;2022-09-12T07:45:45;17.20;99.90
12276;DHT22;6200;48.144;11.424;2022-09-12T07:48:11;17.70;99.90
12276;DHT22;6200;48.144;11.424;2022-09-12T07:50:36;18.10;99.90
12276;DHT22;6200;48.144;11.424;2022-09-12T07:53:03;18.40;99.90
12276;DHT22;6200;48.144;11.424;2022-09-12T07:55:28;18.80;99.90
12276;DHT22;6200;48.144;11.424;2022-09-12T07:57:54;19.10;99.90
12276;DHT22;6200;48.144;11.424;2022-09-12T08:00:20;19.20;99.90
12276;DHT22;6200;48.144;11.424;2022-09-12T08:02:53;19.50;99.90
12276;DHT22;6200;48.144;11.424;2022-09-12T08:05:19;19.70;99.90
12276;DHT22;6200;48.144;11.424;2022-09-12T08:07:45;19.90;99.90
12276;DHT22;6200;48.144;11.424;2022-09-12T08:10:11;20.00;99.90
12276;DHT22;6200;48.144;11.424;2022-09-12T08:12:37;20.10;99.90
12276;DHT22;6200;48.144;11.424;2022-09-12T08:15:02;20.30;99.90
12276;DHT22;6200;48.144;11.424;2022-09-12T08:17:28;20.40;99.90
12276;DHT22;6200;48.144;11.424;2022-09-12T08:19:54;20.50;99.90
12276;DHT22;6200;48.144;11.424;2022-09-12T08:22:20;20.70;99.90
12276;DHT22;6200;48.144;11.424;2022-09-12T08:24:49;21.00;99.90
12276;DHT22;6200;48.144;11.424;2022-09-12T08:27:15;21.10;99.90
12276;DHT22;6200;48.144;11.424;2022-09-12T08:29:40;21.10;99.90
12276;DHT22;6200;48.144;11.424;2022-09-12T08:32:06;21.10;99.90
12276;DHT22;6200;48.144;11.424;2022-09-12T08:34:32;21.10;99.90
12276;DHT22;6200;48.144;11.424;2022-09-12T08:36:57;21.50;98.60
12276;DHT22;6200;48.144;11.424;2022-09-12T08:39:23;21.80;98.30
12276;DHT22;6200;48.144;11.424;2022-09-12T08:42:03;21.90;97.80
12276;DHT22;6200;48.144;11.424;2022-09-12T08:44:42;22.10;96.10
12276;DHT22;6200;48.144;11.424;2022-09-12T08:47:26;22.30;95.10
12276;DHT22;6200;48.144;11.424;2022-09-12T08:55:52;22.90;92.10
12276;DHT22;6200;48.144;11.424;2022-09-12T08:58:21;23.20;91.80
12276;DHT22;6200;48.144;11.424;2022-09-12T09:04:09;23.40;92.60
12276;DHT22;6200;48.144;11.424;2022-09-12T09:12:15;23.90;90.40
12276;DHT22;6200;48.144;11.424;2022-09-12T09:17:40;24.20;90.70
12276;DHT22;6200;48.144;11.424;2022-09-12T09:22:52;24.60;83.30
12276;DHT22;6200;48.144;11.424;2022-09-12T09:28:32;24.80;85.20
12276;DHT22;6200;48.144;11.424;2022-09-12T09:31:00;25.10;79.00
12276;DHT22;6200;48.144;11.424;2022-09-12T09:33:32;25.20;79.10
12276;DHT22;6200;48.144;11.424;2022-09-12T09:36:07;25.20;80.50
12276;DHT22;6200;48.144;11.424;2022-09-12T09:43:48;25.70;79.60
12276;DHT22;6200;48.144;11.424;2022-09-12T09:46:14;25.90;78.10
12276;DHT22;6200;48.144;11.424;2022-09-12T09:48:43;26.10;78.60
12276;DHT22;6200;48.144;11.424;2022-09-12T09:51:10;26.30;73.90
12276;DHT22;6200;48.144;11.424;2022-09-12T09:53:44;26.40;75.40
12276;DHT22;6200;48.144;11.424;2022-09-12T09:56:19;26.70;71.10
12276;DHT22;6200;48.144;11.424;2022-09-12T09:58:50;27.00;67.50
12276;DHT22;6200;48.144;11.424;2022-09-12T10:01:16;26.90;70.00
12276;DHT22;6200;48.144;11.424;2022-09-12T10:03:48;27.00;69.40
12276;DHT22;6200;48.144;11.424;2022-09-12T10:06:24;26.90;68.20
12276;DHT22;6200;48.144;11.424;2022-09-12T10:08:50;27.00;69.80
12276;DHT22;6200;48.144;11.424;2022-09-12T10:11:27;27.10;66.20
12276;DHT22;6200;48.144;11.424;2022-09-12T10:13:55;27.20;65.40
12276;DHT22;6200;48.144;11.424;2022-09-12T10:16:25;27.40;66.90
12276;DHT22;6200;48.144;11.424;2022-09-12T10:18:53;27.40;66.50
12276;DHT22;6200;48.144;11.424;2022-09-12T10:24:32;27.50;67.10
12276;DHT22;6200;48.144;11.424;2022-09-12T10:29:47;27.80;65.20
12276;DHT22;6200;48.144;11.424;2022-09-12T10:32:26;27.70;64.70
12276;DHT22;6200;48.144;11.424;2022-09-12T10:35:03;27.90;63.90
12276;DHT22;6200;48.144;11.424;2022-09-12T10:37:34;28.00;65.60
12276;DHT22;6200;48.144;11.424;2022-09-12T10:40:03;28.10;66.30
12276;DHT22;6200;48.144;11.424;2022-09-12T10:42:49;28.20;62.50
12276;DHT22;6200;48.144;11.424;2022-09-12T10:45:34;28.50;64.80
12276;DHT22;6200;48.144;11.424;2022-09-12T10:48:22;28.30;64.60
12276;DHT22;6200;48.144;11.424;2022-09-12T10:50:49;28.40;63.50
12276;DHT22;6200;48.144;11.424;2022-09-12T10:53:22;28.50;64.20
12276;DHT22;6200;48.144;11.424;2022-09-12T11:04:28;28.80;62.10
12276;DHT22;6200;48.144;11.424;2022-09-12T11:10:09;28.80;59.10
12276;DHT22;6200;48.144;11.424;2022-09-12T11:12:40;29.00;62.00
12276;DHT22;6200;48.144;11.424;2022-09-12T11:15:15;28.80;64.30
12276;DHT22;6200;48.144;11.424;2022-09-12T11:26:21;29.10;60.90
12276;DHT22;6200;48.144;11.424;2022-09-12T11:32:02;29.10;59.50
12276;DHT22;6200;48.144;11.424;2022-09-12T11:42:45;29.00;59.60
12276;DHT22;6200;48.144;11.424;2022-09-12T11:45:21;29.00;58.30
12276;DHT22;6200;48.144;11.424;2022-09-12T11:47:52;29.00;62.50
12276;DHT22;6200;48.144;11.424;2022-09-12T11:50:29;28.90;63.30
12276;DHT22;6200;48.144;11.424;2022-09-12T11:53:04;28.90;59.90
12276;DHT22;6200;48.144;11.424;2022-09-12T11:55:43;29.10;58.70
12276;DHT22;6200;48.144;11.424;2022-09-12T11:58:11;28.90;59.60
12276;DHT22;6200;48.144;11.424;2022-09-12T12:00:46;28.90;59.00
12276;DHT22;6200;48.144;11.424;2022-09-12T12:03:48;29.00;58.30
12276;DHT22;6200;48.144;11.424;2022-09-12T12:06:20;28.80;59.60
12276;DHT22;6200;48.144;11.424;2022-09-12T12:08:48;28.90;58.00
12276;DHT22;6200;48.144;11.424;2022-09-12T12:13:54;28.70;61.70
12276;DHT22;6200;48.144;11.424;2022-09-12T12:16:24;29.00;56.80
12276;DHT22;6200;48.144;11.424;2022-09-12T12:18:59;28.90;58.20
12276;DHT22;6200;48.144;11.424;2022-09-12T12:29:03;29.10;60.00
12276;DHT22;6200;48.144;11.424;2022-09-12T12:31:29;29.10;62.50
12276;DHT22;6200;48.144;11.424;2022-09-12T12:34:01;29.20;59.10
12276;DHT22;6200;48.144;11.424;2022-09-12T12:36:36;29.10;59.20
12276;DHT22;6200;48.144;11.424;2022-09-12T12:41:56;29.00;57.20
12276;DHT22;6200;48.144;11.424;2022-09-12T12:47:30;29.30;57.10
12276;DHT22;6200;48.144;11.424;2022-09-12T12:50:20;29.20;56.60
12276;DHT22;6200;48.144;11.424;2022-09-12T12:52:52;29.20;57.70
12276;DHT22;6200;48.144;11.424;2022-09-12T12:55:44;29.00;57.50
12276;DHT22;6200;48.144;11.424;2022-09-12T12:58:27;28.90;58.40
12276;DHT22;6200;48.144;11.424;2022-09-12T13:03:45;28.70;59.30
12276;DHT22;6200;48.144;11.424;2022-09-12T13:06:34;28.60;58.00
12276;DHT22;6200;48.144;11.424;2022-09-12T13:09:07;28.60;58.60
12276;DHT22;6200;48.144;11.424;2022-09-12T13:11:38;28.80;59.10
12276;DHT22;6200;48.144;11.424;2022-09-12T13:17:00;28.50;59.00
12276;DHT22;6200;48.144;11.424;2022-09-12T13:19:28;28.30;58.70
12276;DHT22;6200;48.144;11.424;2022-09-12T13:21:55;28.10;60.40
12276;DHT22;6200;48.144;11.424;2022-09-12T13:24:22;27.80;59.00
12276;DHT22;6200;48.144;11.424;2022-09-12T13:26:48;29.10;61.10
12276;DHT22;6200;48.144;11.424;2022-09-12T13:29:19;27.70;59.30
12276;DHT22;6200;48.144;11.424;2022-09-12T13:31:48;27.70;59.40
12276;DHT22;6200;48.144;11.424;2022-09-12T13:34:22;27.70;60.70
12276;DHT22;6200;48.144;11.424;2022-09-12T13:42:47;27.70;59.30
12276;DHT22;6200;48.144;11.424;2022-09-12T13:45:23;27.60;58.70
12276;DHT22;6200;48.144;11.424;2022-09-12T13:48:02;27.80;60.20
12276;DHT22;6200;48.144;11.424;2022-09-12T13:50:32;27.70;60.00
12276;DHT22;6200;48.144;11.424;2022-09-12T13:53:07;27.70;61.60
12276;DHT22;6200;48.144;11.424;2022-09-12T13:55:41;27.90;61.20
12276;DHT22;6200;48.144;11.424;2022-09-12T13:58:22;28.00;58.40
12276;DHT22;6200;48.144;11.424;2022-09-12T14:01:09;27.80;60.00
12276;DHT22;6200;48.144;11.424;2022-09-12T14:03:42;27.60;59.80
12276;DHT22;6200;48.144;11.424;2022-09-12T14:06:36;27.40;61.50
12276;DHT22;6200;48.144;11.424;2022-09-12T14:09:22;27.20;61.10
12276;DHT22;6200;48.144;11.424;2022-09-12T14:11:48;27.00;62.50
12276;DHT22;6200;48.144;11.424;2022-09-12T14:14:30;26.90;62.10
12276;DHT22;6200;48.144;11.424;2022-09-12T14:17:00;26.80;60.80
12276;DHT22;6200;48.144;11.424;2022-09-12T14:19:27;26.70;62.30
12276;DHT22;6200;48.144;11.424;2022-09-12T14:21:54;26.50;60.90
12276;DHT22;6200;48.144;11.424;2022-09-12T14:24:20;26.30;62.90
12276;DHT22;6200;48.144;11.424;2022-09-12T14:26:51;26.00;64.10
12276;DHT22;6200;48.144;11.424;2022-09-12T14:29:19;26.00;62.50
12276;DHT22;6200;48.144;11.424;2022-09-12T14:31:59;25.70;62.50
12276;DHT22;6200;48.144;11.424;2022-09-12T14:34:25;25.60;64.60
12276;DHT22;6200;48.144;11.424;2022-09-12T14:36:52;25.50;64.80
12276;DHT22;6200;48.144;11.424;2022-09-12T14:41:49;25.30;65.40
12276;DHT22;6200;48.144;11.424;2022-09-12T14:44:23;25.20;67.00
12276;DHT22;6200;48.144;11.424;2022-09-12T14:46:50;25.00;68.30
12276;DHT22;6200;48.144;11.424;2022-09-12T14:51:55;24.90;67.30
12276;DHT22;6200;48.144;11.424;2022-09-12T14:56:54;24.80;68.60
12276;DHT22;6200;48.144;11.424;2022-09-12T14:59:34;24.80;65.80
12276;DHT22;6200;48.144;11.424;2022-09-12T15:04:43;24.80;68.30
12276;DHT22;6200;48.144;11.424;2022-09-12T15:09:49;24.70;65.90
12276;DHT22;6200;48.144;11.424;2022-09-12T15:12:15;24.70;66.50
12276;DHT22;6200;48.144;11.424;2022-09-12T15:14:40;24.70;67.60
12276;DHT22;6200;48.144;11.424;2022-09-12T15:17:06;24.60;66.30
12276;DHT22;6200;48.144;11.424;2022-09-12T15:19:31;24.60;64.30
12276;DHT22;6200;48.144;11.424;2022-09-12T15:21:57;24.60;65.20
12276;DHT22;6200;48.144;11.424;2022-09-12T15:24:22;24.60;65.10
12276;DHT22;6200;48.144;11.424;2022-09-12T15:26:48;24.60;66.70
12276;DHT22;6200;48.144;11.424;2022-09-12T15:29:15;24.40;64.60
12276;DHT22;6200;48.144;11.424;2022-09-12T15:31:40;24.30;65.10
12276;DHT22;6200;48.144;11.424;2022-09-12T15:34:10;24.20;67.50
12276;DHT22;6200;48.144;11.424;2022-09-12T15:36:35;24.10;69.70
12276;DHT22;6200;48.144;11.424;2022-09-12T15:39:01;24.10;66.30
12276;DHT22;6200;48.144;11.424;2022-09-12T15:41:35;24.20;67.20
12276;DHT22;6200;48.144;11.424;2022-09-12T15:44:06;24.20;67.60
12276;DHT22;6200;48.144;11.424;2022-09-12T15:46:34;24.10;67.90
12276;DHT22;6200;48.144;11.424;2022-09-12T15:49:00;24.10;66.70
12276;DHT22;6200;48.144;11.424;2022-09-12T15:51:26;24.10;65.60
12276;DHT22;6200;48.144;11.424;2022-09-12T15:53:52;24.10;67.60
12276;DHT22;6200;48.144;11.424;2022-09-12T15:56:19;23.90;68.60
12276;DHT22;6200;48.144;11.424;2022-09-12T15:58:45;23.80;69.10
12276;DHT22;6200;48.144;11.424;2022-09-12T16:01:12;23.80;67.70
12276;DHT22;6200;48.144;11.424;2022-09-12T16:03:38;23.80;68.10
12276;DHT22;6200;48.144;11.424;2022-09-12T16:06:04;23.70;69.20
12276;DHT22;6200;48.144;11.424;2022-09-12T16:08:30;23.60;68.80
12276;DHT22;6200;48.144;11.424;2022-09-12T16:10:58;23.60;72.20
12276;DHT22;6200;48.144;11.424;2022-09-12T16:13:25;23.50;71.20
12276;DHT22;6200;48.144;11.424;2022-09-12T16:15:54;23.50;70.20
12276;DHT22;6200;48.144;11.424;2022-09-12T16:18:20;23.30;70.20
12276;DHT22;6200;48.144;11.424;2022-09-12T16:20:46;23.30;69.80
12276;DHT22;6200;48.144;11.424;2022-09-12T16:23:12;23.20;69.90
12276;DHT22;6200;48.144;11.424;2022-09-12T16:25:38;23.20;70.40
12276;DHT22;6200;48.144;11.424;2022-09-12T16:28:04;23.10;72.50
12276;DHT22;6200;48.144;11.424;2022-09-12T16:30:34;23.10;74.00
12276;DHT22;6200;48.144;11.424;2022-09-12T16:32:59;23.00;74.20
12276;DHT22;6200;48.144;11.424;2022-09-12T16:35:25;23.00;72.40
12276;DHT22;6200;48.144;11.424;2022-09-12T16:37:51;22.90;72.00
12276;DHT22;6200;48.144;11.424;2022-09-12T16:40:16;22.90;73.50
12276;DHT22;6200;48.144;11.424;2022-09-12T16:42:46;22.70;73.50
12276;DHT22;6200;48.144;11.424;2022-09-12T16:45:12;22.60;76.10
12276;DHT22;6200;48.144;11.424;2022-09-12T16:47:38;22.60;76.70
12276;DHT22;6200;48.144;11.424;2022-09-12T16:50:04;22.40;78.20
12276;DHT22;6200;48.144;11.424;2022-09-12T16:52:32;22.30;78.50
12276;DHT22;6200;48.144;11.424;2022-09-12T16:54:57;22.10;76.40
12276;DHT22;6200;48.144;11.424;2022-09-12T16:57:23;22.10;76.70
12276;DHT22;6200;48.144;11.424;2022-09-12T16:59:48;22.10;77.00
12276;DHT22;6200;48.144;11.424;2022-09-12T17:02:14;22.10;76.60
12276;DHT22;6200;48.144;11.424;2022-09-12T17:04:40;22.00;79.10
12276;DHT22;6200;48.144;11.424;2022-09-12T17:07:06;21.90;80.60
12276;DHT22;6200;48.144;11.424;2022-09-12T17:09:32;21.80;82.00
12276;DHT22;6200;48.144;11.424;2022-09-12T17:11:58;21.80;81.40
12276;DHT22;6200;48.144;11.424;2022-09-12T17:14:25;21.60;82.30
12276;DHT22;6200;48.144;11.424;2022-09-12T17:16:51;21.50;82.30
12276;DHT22;6200;48.144;11.424;2022-09-12T17:19:19;21.40;83.60
12276;DHT22;6200;48.144;11.424;2022-09-12T17:21:45;21.30;83.40
12276;DHT22;6200;48.144;11.424;2022-09-12T17:24:15;21.30;84.20
12276;DHT22;6200;48.144;11.424;2022-09-12T17:26:41;21.20;86.30
12276;DHT22;6200;48.144;11.424;2022-09-12T17:29:06;21.10;88.00
12276;DHT22;6200;48.144;11.424;2022-09-12T17:31:32;20.90;88.30
12276;DHT22;6200;48.144;11.424;2022-09-12T17:33:59;20.90;88.20
12276;DHT22;6200;48.144;11.424;2022-09-12T17:36:26;20.80;89.70
12276;DHT22;6200;48.144;11.424;2022-09-12T17:38:52;20.60;89.80
12276;DHT22;6200;48.144;11.424;2022-09-12T17:41:21;20.60;90.30
12276;DHT22;6200;48.144;11.424;2022-09-12T17:43:52;20.50;91.40
12276;DHT22;6200;48.144;11.424;2022-09-12T17:46:20;20.40;91.30
12276;DHT22;6200;48.144;11.424;2022-09-12T17:48:53;20.30;91.70
12276;DHT22;6200;48.144;11.424;2022-09-12T17:51:21;20.10;91.20
12276;DHT22;6200;48.144;11.424;2022-09-12T17:53:47;20.10;92.20
12276;DHT22;6200;48.144;11.424;2022-09-12T17:56:13;20.00;92.50
12276;DHT22;6200;48.144;11.424;2022-09-12T17:58:39;19.90;92.40
12276;DHT22;6200;48.144;11.424;2022-09-12T18:01:11;19.80;92.60
12276;DHT22;6200;48.144;11.424;2022-09-12T18:03:56;19.70;93.40
12276;DHT22;6200;48.144;11.424;2022-09-12T18:06:23;19.70;93.30
12276;DHT22;6200;48.144;11.424;2022-09-12T18:08:48;19.70;93.90
12276;DHT22;6200;48.144;11.424;2022-09-12T18:11:14;19.50;94.00